sensor_id;sensor_type;location;lat;lon;timestamp;temperature;humidity
68385;DHT22;55336;43.062;25.626;2023-04-25T00:02:04;11.90;99.90
68385;DHT22;55336;43.062;25.626;2023-04-25T00:04:30;11.90;99.90
68385;DHT22;55336;43.062;25.626;2023-04-25T00:06:58;11.90;99.90
68385;DHT22;55336;43.062;25.626;2023-04-25T00:09:27;11.90;99.90
68385;DHT22;55336;43.062;25.626;2023-04-25T00:11:53;11.80;99.90
68385;DHT22;55336;43.062;25.626;2023-04-25T00:14:18;11.80;99.90
68385;DHT22;55336;43.062;25.626;2023-04-25T00:16:44;11.80;99.90
68385;DHT22;55336;43.062;25.626;2023-04-25T00:19:10;11.80;99.90
68385;DHT22;55336;43.062;25.626;2023-04-25T00:21:36;11.70;99.90
68385;DHT22;55336;43.062;25.626;2023-04-25T00:24:12;11.80;99.90
68385;DHT22;55336;43.062;25.626;2023-04-25T00:26:37;11.70;99.90
68385;DHT22;55336;43.062;25.626;2023-04-25T00:29:03;11.70;99.90
68385;DHT22;55336;43.062;25.626;2023-04-25T00:31:29;11.70;99.90
68385;DHT22;55336;43.062;25.626;2023-04-25T00:33:55;11.70;99.90
68385;DHT22;55336;43.062;25.626;2023-04-25T00:36:21;11.60;99.90
68385;DHT22;55336;43.062;25.626;2023-04-25T00:38:47;11.60;99.90
68385;DHT22;55336;43.062;25.626;2023-04-25T00:41:12;11.50;99.90
68385;DHT22;55336;43.062;25.626;2023-04-25T00:43:39;11.50;99.90
68385;DHT22;55336;43.062;25.626;2023-04-25T00:46:05;11.50;99.90
68385;DHT22;55336;43.062;25.626;2023-04-25T00:48:31;11.50;99.90
68385;DHT22;55336;43.062;25.626;2023-04-25T00:50:57;11.40;99.90
68385;DHT22;55336;43.062;25.626;2023-04-25T00:53:24;11.40;99.90
68385;DHT22;55336;43.062;25.626;2023-04-25T00:55:50;11.40;99.90
68385;DHT22;55336;43.062;25.626;2023-04-25T00:58:19;11.40;99.90
68385;DHT22;55336;43.062;25.626;2023-04-25T01:00:45;11.40;99.90
68385;DHT22;55336;43.062;25.626;2023-04-25T01:03:12;11.40;99.90
68385;DHT22;55336;43.062;25.626;2023-04-25T01:05:39;11.40;99.90
68385;DHT22;55336;43.062;25.626;2023-04-25T01:08:06;11.30;99.90
68385;DHT22;55336;43.062;25.626;2023-04-25T01:10:31;11.40;99.90
68385;DHT22;55336;43.062;25.626;2023-04-25T01:12:57;11.30;99.90
68385;DHT22;55336;43.062;25.626;2023-04-25T01:15:23;11.30;99.90
68385;DHT22;55336;43.062;25.626;2023-04-25T01:17:49;11.30;99.90
68385;DHT22;55336;43.062;25.626;2023-04-25T01:20:15;11.20;99.90
68385;DHT22;55336;43.062;25.626;2023-04-25T01:22:41;11.20;99.90
68385;DHT22;55336;43.062;25.626;2023-04-25T01:25:07;11.20;99.90
68385;DHT22;55336;43.062;25.626;2023-04-25T01:27:35;11.20;99.90
68385;DHT22;55336;43.062;25.626;2023-04-25T01:30:01;11.20;99.90
68385;DHT22;55336;43.062;25.626;2023-04-25T01:32:26;11.20;99.90
68385;DHT22;55336;43.062;25.626;2023-04-25T01:34:52;11.10;99.90
68385;DHT22;55336;43.062;25.626;2023-04-25T01:37:18;11.10;99.90
68385;DHT22;55336;43.062;25.626;2023-04-25T01:39:44;11.10;99.90
68385;DHT22;55336;43.062;25.626;2023-04-25T01:42:10;11.10;99.90
68385;DHT22;55336;43.062;25.626;2023-04-25T01:44:36;11.00;99.90
68385;DHT22;55336;43.062;25.626;2023-04-25T01:47:02;11.00;99.90
68385;DHT22;55336;43.062;25.626;2023-04-25T01:49:28;10.90;99.90
68385;DHT22;55336;43.062;25.626;2023-04-25T01:51:53;10.90;99.90
68385;DHT22;55336;43.062;25.626;2023-04-25T01:54:19;11.00;99.90
68385;DHT22;55336;43.062;25.626;2023-04-25T01:56:49;11.00;99.90
68385;DHT22;55336;43.062;25.626;2023-04-25T01:59:15;11.00;99.90
68385;DHT22;55336;43.062;25.626;2023-04-25T02:01:41;11.10;99.90
68385;DHT22;55336;43.062;25.626;2023-04-25T02:04:07;11.00;99.90
68385;DHT22;55336;43.062;25.626;2023-04-25T02:06:33;11.00;99.90
68385;DHT22;55336;43.062;25.626;2023-04-25T02:08:59;11.00;99.90
68385;DHT22;55336;43.062;25.626;2023-04-25T02:11:25;11.00;99.90
68385;DHT22;55336;43.062;25.626;2023-04-25T02:13:50;11.00;99.90
68385;DHT22;55336;43.062;25.626;2023-04-25T02:16:17;11.10;99.90
68385;DHT22;55336;43.062;25.626;2023-04-25T02:18:43;11.00;99.90
68385;DHT22;55336;43.062;25.626;2023-04-25T02:21:10;11.00;99.90
68385;DHT22;55336;43.062;25.626;2023-04-25T02:23:36;11.00;99.90
68385;DHT22;55336;43.062;25.626;2023-04-25T02:26:03;11.00;99.90
68385;DHT22;55336;43.062;25.626;2023-04-25T02:28:28;11.00;99.90
68385;DHT22;55336;43.062;25.626;2023-04-25T02:30:54;11.10;99.90
68385;DHT22;55336;43.062;25.626;2023-04-25T02:33:20;11.00;99.90
68385;DHT22;55336;43.062;25.626;2023-04-25T02:35:46;10.90;99.90
68385;DHT22;55336;43.062;25.626;2023-04-25T02:38:12;10.90;99.90
68385;DHT22;55336;43.062;25.626;2023-04-25T02:40:38;10.90;99.90
68385;DHT22;55336;43.062;25.626;2023-04-25T02:43:04;10.90;99.90
68385;DHT22;55336;43.062;25.626;2023-04-25T02:45:31;10.80;99.90
68385;DHT22;55336;43.062;25.626;2023-04-25T02:47:57;10.90;99.90
68385;DHT22;55336;43.062;25.626;2023-04-25T02:50:22;10.90;99.90
68385;DHT22;55336;43.062;25.626;2023-04-25T02:52:49;10.90;99.90
68385;DHT22;55336;43.062;25.626;2023-04-25T02:55:16;10.90;99.90
68385;DHT22;55336;43.062;25.626;2023-04-25T02:57:41;10.90;99.90
68385;DHT22;55336;43.062;25.626;2023-04-25T03:00:08;10.90;99.90
68385;DHT22;55336;43.062;25.626;2023-04-25T03:02:34;10.90;99.90
68385;DHT22;55336;43.062;25.626;2023-04-25T03:05:00;10.80;99.90
68385;DHT22;55336;43.062;25.626;2023-04-25T03:07:25;10.80;99.90
68385;DHT22;55336;43.062;25.626;2023-04-25T03:09:51;10.80;99.90
68385;DHT22;55336;43.062;25.626;2023-04-25T03:12:17;10.70;99.90
68385;DHT22;55336;43.062;25.626;2023-04-25T03:14:43;10.70;99.90
68385;DHT22;55336;43.062;25.626;2023-04-25T03:17:09;10.60;99.90
68385;DHT22;55336;43.062;25.626;2023-04-25T03:19:35;10.60;99.90
68385;DHT22;55336;43.062;25.626;2023-04-25T03:22:01;10.60;99.90
68385;DHT22;55336;43.062;25.626;2023-04-25T03:24:27;10.60;99.90
68385;DHT22;55336;43.062;25.626;2023-04-25T03:26:53;10.60;99.90
68385;DHT22;55336;43.062;25.626;2023-04-25T03:29:19;10.60;99.90
68385;DHT22;55336;43.062;25.626;2023-04-25T03:31:49;10.60;99.90
68385;DHT22;55336;43.062;25.626;2023-04-25T03:34:15;10.60;99.90
68385;DHT22;55336;43.062;25.626;2023-04-25T03:36:41;10.60;99.90
68385;DHT22;55336;43.062;25.626;2023-04-25T03:39:07;10.70;99.90
68385;DHT22;55336;43.062;25.626;2023-04-25T03:41:33;10.70;99.90
68385;DHT22;55336;43.062;25.626;2023-04-25T03:43:58;10.70;99.90
68385;DHT22;55336;43.062;25.626;2023-04-25T03:46:24;10.80;99.90
68385;DHT22;55336;43.062;25.626;2023-04-25T03:48:50;10.80;99.90
68385;DHT22;55336;43.062;25.626;2023-04-25T03:51:16;10.80;99.90
68385;DHT22;55336;43.062;25.626;2023-04-25T03:53:42;10.90;99.90
68385;DHT22;55336;43.062;25.626;2023-04-25T03:56:07;11.00;99.90
68385;DHT22;55336;43.062;25.626;2023-04-25T03:58:34;11.00;99.90
68385;DHT22;55336;43.062;25.626;2023-04-25T04:01:00;11.00;99.90
68385;DHT22;55336;43.062;25.626;2023-04-25T04:03:28;11.10;99.90
68385;DHT22;55336;43.062;25.626;2023-04-25T04:05:54;11.10;99.90
68385;DHT22;55336;43.062;25.626;2023-04-25T04:08:20;11.10;99.90
68385;DHT22;55336;43.062;25.626;2023-04-25T04:10:46;11.10;99.90
68385;DHT22;55336;43.062;25.626;2023-04-25T04:13:12;11.10;99.90
68385;DHT22;55336;43.062;25.626;2023-04-25T04:15:38;11.20;99.90
68385;DHT22;55336;43.062;25.626;2023-04-25T04:18:04;11.30;99.90
68385;DHT22;55336;43.062;25.626;2023-04-25T04:20:31;11.30;99.90
68385;DHT22;55336;43.062;25.626;2023-04-25T04:22:57;11.40;99.90
68385;DHT22;55336;43.062;25.626;2023-04-25T04:25:23;11.40;99.90
68385;DHT22;55336;43.062;25.626;2023-04-25T04:27:50;11.20;99.90
68385;DHT22;55336;43.062;25.626;2023-04-25T04:30:21;11.50;99.90
68385;DHT22;55336;43.062;25.626;2023-04-25T04:32:50;11.50;99.90
68385;DHT22;55336;43.062;25.626;2023-04-25T04:35:15;11.80;99.90
68385;DHT22;55336;43.062;25.626;2023-04-25T04:37:41;11.70;99.90
68385;DHT22;55336;43.062;25.626;2023-04-25T04:40:09;11.70;99.90
68385;DHT22;55336;43.062;25.626;2023-04-25T04:42:35;11.80;99.90
68385;DHT22;55336;43.062;25.626;2023-04-25T04:45:01;11.80;99.90
68385;DHT22;55336;43.062;25.626;2023-04-25T04:47:28;11.90;99.90
68385;DHT22;55336;43.062;25.626;2023-04-25T04:49:57;12.00;99.90
68385;DHT22;55336;43.062;25.626;2023-04-25T04:52:23;12.10;99.90
68385;DHT22;55336;43.062;25.626;2023-04-25T04:54:49;12.10;99.90
68385;DHT22;55336;43.062;25.626;2023-04-25T04:57:15;12.00;99.90
68385;DHT22;55336;43.062;25.626;2023-04-25T04:59:41;12.10;99.90
68385;DHT22;55336;43.062;25.626;2023-04-25T05:02:07;12.20;99.90
68385;DHT22;55336;43.062;25.626;2023-04-25T05:04:33;12.20;99.90
68385;DHT22;55336;43.062;25.626;2023-04-25T05:06:59;12.30;99.90
68385;DHT22;55336;43.062;25.626;2023-04-25T05:09:25;12.30;99.90
68385;DHT22;55336;43.062;25.626;2023-04-25T05:11:51;12.40;99.90
68385;DHT22;55336;43.062;25.626;2023-04-25T05:14:17;12.60;99.90
68385;DHT22;55336;43.062;25.626;2023-04-25T05:16:43;12.60;99.90
68385;DHT22;55336;43.062;25.626;2023-04-25T05:19:09;12.70;99.90
68385;DHT22;55336;43.062;25.626;2023-04-25T05:21:35;12.90;99.90
68385;DHT22;55336;43.062;25.626;2023-04-25T05:24:01;12.90;99.90
68385;DHT22;55336;43.062;25.626;2023-04-25T05:26:26;13.00;99.90
68385;DHT22;55336;43.062;25.626;2023-04-25T05:28:59;13.20;99.90
68385;DHT22;55336;43.062;25.626;2023-04-25T05:31:25;13.40;99.90
68385;DHT22;55336;43.062;25.626;2023-04-25T05:33:51;13.60;99.90
68385;DHT22;55336;43.062;25.626;2023-04-25T05:36:18;13.80;99.90
68385;DHT22;55336;43.062;25.626;2023-04-25T05:38:43;14.10;99.90
68385;DHT22;55336;43.062;25.626;2023-04-25T05:41:09;14.00;99.90
68385;DHT22;55336;43.062;25.626;2023-04-25T05:43:35;14.10;99.90
68385;DHT22;55336;43.062;25.626;2023-04-25T05:46:00;14.30;99.90
68385;DHT22;55336;43.062;25.626;2023-04-25T05:48:26;14.30;99.90
68385;DHT22;55336;43.062;25.626;2023-04-25T05:50:52;14.40;99.90
68385;DHT22;55336;43.062;25.626;2023-04-25T05:53:18;14.50;99.90
68385;DHT22;55336;43.062;25.626;2023-04-25T05:55:44;14.90;99.90
68385;DHT22;55336;43.062;25.626;2023-04-25T05:58:10;15.50;99.90
68385;DHT22;55336;43.062;25.626;2023-04-25T06:00:35;16.00;99.90
68385;DHT22;55336;43.062;25.626;2023-04-25T06:03:01;16.50;99.90
68385;DHT22;55336;43.062;25.626;2023-04-25T06:05:27;17.20;99.90
68385;DHT22;55336;43.062;25.626;2023-04-25T06:07:53;17.30;99.90
68385;DHT22;55336;43.062;25.626;2023-04-25T06:10:18;17.20;99.90
68385;DHT22;55336;43.062;25.626;2023-04-25T06:12:44;17.40;99.90
68385;DHT22;55336;43.062;25.626;2023-04-25T06:15:10;17.80;99.90
68385;DHT22;55336;43.062;25.626;2023-04-25T06:17:35;17.70;99.90
68385;DHT22;55336;43.062;25.626;2023-04-25T06:20:01;17.50;99.90
68385;DHT22;55336;43.062;25.626;2023-04-25T06:22:27;17.50;99.90
68385;DHT22;55336;43.062;25.626;2023-04-25T06:24:53;17.60;99.90
68385;DHT22;55336;43.062;25.626;2023-04-25T06:27:18;17.50;99.90
68385;DHT22;55336;43.062;25.626;2023-04-25T06:29:44;17.50;99.90
68385;DHT22;55336;43.062;25.626;2023-04-25T06:32:10;17.60;99.90
68385;DHT22;55336;43.062;25.626;2023-04-25T06:34:35;17.70;99.90
68385;DHT22;55336;43.062;25.626;2023-04-25T06:37:01;17.90;99.90
68385;DHT22;55336;43.062;25.626;2023-04-25T06:39:27;18.10;99.90
68385;DHT22;55336;43.062;25.626;2023-04-25T06:41:52;18.20;99.90
68385;DHT22;55336;43.062;25.626;2023-04-25T06:44:18;18.50;99.90
68385;DHT22;55336;43.062;25.626;2023-04-25T06:46:44;18.90;99.90
68385;DHT22;55336;43.062;25.626;2023-04-25T06:49:10;18.90;99.90
68385;DHT22;55336;43.062;25.626;2023-04-25T06:51:36;19.20;99.90
68385;DHT22;55336;43.062;25.626;2023-04-25T06:54:01;19.30;99.90
68385;DHT22;55336;43.062;25.626;2023-04-25T06:56:29;19.00;99.90
68385;DHT22;55336;43.062;25.626;2023-04-25T06:58:56;18.80;99.90
68385;DHT22;55336;43.062;25.626;2023-04-25T07:01:22;18.70;99.90
68385;DHT22;55336;43.062;25.626;2023-04-25T07:03:47;18.80;99.90
68385;DHT22;55336;43.062;25.626;2023-04-25T07:06:13;18.80;99.90
68385;DHT22;55336;43.062;25.626;2023-04-25T07:08:38;18.70;99.90
68385;DHT22;55336;43.062;25.626;2023-04-25T07:11:04;18.40;99.90
68385;DHT22;55336;43.062;25.626;2023-04-25T07:13:30;18.40;99.90
68385;DHT22;55336;43.062;25.626;2023-04-25T07:15:56;18.20;99.90
68385;DHT22;55336;43.062;25.626;2023-04-25T07:18:22;18.30;99.90
68385;DHT22;55336;43.062;25.626;2023-04-25T07:20:48;18.70;99.90
68385;DHT22;55336;43.062;25.626;2023-04-25T07:23:13;19.10;99.90
68385;DHT22;55336;43.062;25.626;2023-04-25T07:25:39;19.30;99.90
68385;DHT22;55336;43.062;25.626;2023-04-25T07:28:05;19.40;99.90
68385;DHT22;55336;43.062;25.626;2023-04-25T07:30:31;20.00;99.90
68385;DHT22;55336;43.062;25.626;2023-04-25T07:32:56;20.40;99.90
68385;DHT22;55336;43.062;25.626;2023-04-25T07:35:22;20.60;99.90
68385;DHT22;55336;43.062;25.626;2023-04-25T07:37:48;20.80;99.90
68385;DHT22;55336;43.062;25.626;2023-04-25T07:40:13;21.00;99.90
68385;DHT22;55336;43.062;25.626;2023-04-25T07:42:41;21.50;99.90
68385;DHT22;55336;43.062;25.626;2023-04-25T07:45:07;21.90;99.90
68385;DHT22;55336;43.062;25.626;2023-04-25T07:47:34;21.00;99.90
68385;DHT22;55336;43.062;25.626;2023-04-25T07:50:00;20.30;99.90
68385;DHT22;55336;43.062;25.626;2023-04-25T07:52:26;20.70;99.90
68385;DHT22;55336;43.062;25.626;2023-04-25T07:54:51;22.00;97.70
68385;DHT22;55336;43.062;25.626;2023-04-25T07:57:17;23.10;99.90
68385;DHT22;55336;43.062;25.626;2023-04-25T07:59:43;23.20;78.90
68385;DHT22;55336;43.062;25.626;2023-04-25T08:02:09;24.20;69.10
68385;DHT22;55336;43.062;25.626;2023-04-25T08:04:35;24.80;65.10
68385;DHT22;55336;43.062;25.626;2023-04-25T08:07:01;24.60;79.30
68385;DHT22;55336;43.062;25.626;2023-04-25T08:09:26;24.60;71.10
68385;DHT22;55336;43.062;25.626;2023-04-25T08:11:52;25.10;57.10
68385;DHT22;55336;43.062;25.626;2023-04-25T08:14:18;24.80;59.10
68385;DHT22;55336;43.062;25.626;2023-04-25T08:16:43;24.00;60.40
68385;DHT22;55336;43.062;25.626;2023-04-25T08:19:09;23.50;58.40
68385;DHT22;55336;43.062;25.626;2023-04-25T08:21:36;24.10;61.00
68385;DHT22;55336;43.062;25.626;2023-04-25T08:24:02;24.40;58.80
68385;DHT22;55336;43.062;25.626;2023-04-25T08:26:28;25.50;56.30
68385;DHT22;55336;43.062;25.626;2023-04-25T08:28:54;25.70;56.00
68385;DHT22;55336;43.062;25.626;2023-04-25T08:31:19;24.80;50.70
68385;DHT22;55336;43.062;25.626;2023-04-25T08:33:45;23.00;58.30
68385;DHT22;55336;43.062;25.626;2023-04-25T08:36:11;22.50;60.90
68385;DHT22;55336;43.062;25.626;2023-04-25T08:38:37;22.20;60.10
68385;DHT22;55336;43.062;25.626;2023-04-25T08:41:03;22.20;65.10
68385;DHT22;55336;43.062;25.626;2023-04-25T08:43:29;22.10;62.20
68385;DHT22;55336;43.062;25.626;2023-04-25T08:45:55;22.00;61.90
68385;DHT22;55336;43.062;25.626;2023-04-25T08:48:24;21.80;61.90
68385;DHT22;55336;43.062;25.626;2023-04-25T08:50:50;21.70;61.70
68385;DHT22;55336;43.062;25.626;2023-04-25T08:53:17;22.70;63.30
68385;DHT22;55336;43.062;25.626;2023-04-25T08:55:45;23.00;59.00
68385;DHT22;55336;43.062;25.626;2023-04-25T08:58:11;23.40;59.30
68385;DHT22;55336;43.062;25.626;2023-04-25T09:00:37;23.30;56.20
68385;DHT22;55336;43.062;25.626;2023-04-25T09:03:03;23.20;57.10
68385;DHT22;55336;43.062;25.626;2023-04-25T09:05:29;23.00;56.80
68385;DHT22;55336;43.062;25.626;2023-04-25T09:07:55;22.50;59.80
68385;DHT22;55336;43.062;25.626;2023-04-25T09:10:21;22.30;60.40
68385;DHT22;55336;43.062;25.626;2023-04-25T09:13:06;23.00;59.20
68385;DHT22;55336;43.062;25.626;2023-04-25T09:15:56;23.20;55.00
68385;DHT22;55336;43.062;25.626;2023-04-25T09:20:51;23.60;56.30
68385;DHT22;55336;43.062;25.626;2023-04-25T09:23:16;24.20;55.80
68385;DHT22;55336;43.062;25.626;2023-04-25T09:25:45;24.20;54.80
68385;DHT22;55336;43.062;25.626;2023-04-25T09:28:12;25.50;50.70
68385;DHT22;55336;43.062;25.626;2023-04-25T09:30:38;26.10;48.60
68385;DHT22;55336;43.062;25.626;2023-04-25T09:33:07;25.30;53.00
68385;DHT22;55336;43.062;25.626;2023-04-25T09:35:37;26.10;50.60
68385;DHT22;55336;43.062;25.626;2023-04-25T09:38:07;26.10;46.70
68385;DHT22;55336;43.062;25.626;2023-04-25T09:40:33;26.00;46.30
68385;DHT22;55336;43.062;25.626;2023-04-25T09:42:58;25.00;50.00
68385;DHT22;55336;43.062;25.626;2023-04-25T09:45:24;23.60;49.30
68385;DHT22;55336;43.062;25.626;2023-04-25T09:47:50;23.50;50.30
68385;DHT22;55336;43.062;25.626;2023-04-25T09:50:20;23.20;50.70
68385;DHT22;55336;43.062;25.626;2023-04-25T09:53:02;22.50;54.10
68385;DHT22;55336;43.062;25.626;2023-04-25T09:55:29;20.50;57.40
68385;DHT22;55336;43.062;25.626;2023-04-25T09:57:55;19.40;66.00
68385;DHT22;55336;43.062;25.626;2023-04-25T10:00:25;17.60;71.60
68385;DHT22;55336;43.062;25.626;2023-04-25T10:02:51;17.10;86.90
68385;DHT22;55336;43.062;25.626;2023-04-25T10:05:18;16.10;99.90
68385;DHT22;55336;43.062;25.626;2023-04-25T10:07:44;14.70;99.90
68385;DHT22;55336;43.062;25.626;2023-04-25T10:10:10;12.90;99.90
68385;DHT22;55336;43.062;25.626;2023-04-25T10:12:38;12.40;99.90
68385;DHT22;55336;43.062;25.626;2023-04-25T10:15:05;12.30;99.90
68385;DHT22;55336;43.062;25.626;2023-04-25T10:17:33;12.40;99.90
68385;DHT22;55336;43.062;25.626;2023-04-25T10:20:00;12.40;99.90
68385;DHT22;55336;43.062;25.626;2023-04-25T10:22:34;12.50;99.90
68385;DHT22;55336;43.062;25.626;2023-04-25T10:25:01;12.50;99.90
68385;DHT22;55336;43.062;25.626;2023-04-25T10:27:30;12.60;99.90
68385;DHT22;55336;43.062;25.626;2023-04-25T10:30:14;12.60;99.90
68385;DHT22;55336;43.062;25.626;2023-04-25T10:32:44;12.60;99.90
68385;DHT22;55336;43.062;25.626;2023-04-25T10:35:14;12.80;99.90
68385;DHT22;55336;43.062;25.626;2023-04-25T10:40:25;13.10;99.90
68385;DHT22;55336;43.062;25.626;2023-04-25T10:42:52;13.30;99.90
68385;DHT22;55336;43.062;25.626;2023-04-25T10:45:18;13.30;99.90
68385;DHT22;55336;43.062;25.626;2023-04-25T10:47:45;13.30;99.90
68385;DHT22;55336;43.062;25.626;2023-04-25T10:50:11;13.50;99.90
68385;DHT22;55336;43.062;25.626;2023-04-25T10:52:38;13.70;99.90
68385;DHT22;55336;43.062;25.626;2023-04-25T10:55:04;14.00;99.90
68385;DHT22;55336;43.062;25.626;2023-04-25T10:57:31;14.40;99.90
68385;DHT22;55336;43.062;25.626;2023-04-25T11:00:04;14.80;99.90
68385;DHT22;55336;43.062;25.626;2023-04-25T11:02:32;15.30;99.90
68385;DHT22;55336;43.062;25.626;2023-04-25T11:05:02;15.40;99.90
68385;DHT22;55336;43.062;25.626;2023-04-25T11:07:37;16.80;99.90
68385;DHT22;55336;43.062;25.626;2023-04-25T11:10:03;17.20;99.90
68385;DHT22;55336;43.062;25.626;2023-04-25T11:12:30;18.00;99.90
68385;DHT22;55336;43.062;25.626;2023-04-25T11:14:59;17.90;99.90
68385;DHT22;55336;43.062;25.626;2023-04-25T11:17:26;17.80;99.90
68385;DHT22;55336;43.062;25.626;2023-04-25T11:19:52;17.10;99.90
68385;DHT22;55336;43.062;25.626;2023-04-25T11:22:19;16.70;99.90
68385;DHT22;55336;43.062;25.626;2023-04-25T11:24:46;16.30;99.90
68385;DHT22;55336;43.062;25.626;2023-04-25T11:27:12;16.40;99.90
68385;DHT22;55336;43.062;25.626;2023-04-25T11:29:37;16.40;99.90
68385;DHT22;55336;43.062;25.626;2023-04-25T11:32:03;16.30;99.90
68385;DHT22;55336;43.062;25.626;2023-04-25T11:34:29;17.20;99.90
68385;DHT22;55336;43.062;25.626;2023-04-25T11:36:58;18.40;99.90
68385;DHT22;55336;43.062;25.626;2023-04-25T11:39:25;19.80;99.90
68385;DHT22;55336;43.062;25.626;2023-04-25T11:41:51;21.20;99.90
68385;DHT22;55336;43.062;25.626;2023-04-25T11:44:18;22.10;99.90
68385;DHT22;55336;43.062;25.626;2023-04-25T11:46:44;22.50;99.90
68385;DHT22;55336;43.062;25.626;2023-04-25T11:49:10;22.70;99.90
68385;DHT22;55336;43.062;25.626;2023-04-25T11:51:39;22.10;99.90
68385;DHT22;55336;43.062;25.626;2023-04-25T11:54:05;22.20;99.90
68385;DHT22;55336;43.062;25.626;2023-04-25T11:56:31;21.90;99.70
68385;DHT22;55336;43.062;25.626;2023-04-25T11:58:58;22.00;94.10
68385;DHT22;55336;43.062;25.626;2023-04-25T12:01:25;22.20;99.30
68385;DHT22;55336;43.062;25.626;2023-04-25T12:03:51;22.10;93.90
68385;DHT22;55336;43.062;25.626;2023-04-25T12:06:17;22.30;91.70
68385;DHT22;55336;43.062;25.626;2023-04-25T12:08:59;22.30;90.40
68385;DHT22;55336;43.062;25.626;2023-04-25T12:11:25;22.00;88.30
68385;DHT22;55336;43.062;25.626;2023-04-25T12:13:51;21.10;91.20
68385;DHT22;55336;43.062;25.626;2023-04-25T12:16:18;20.30;90.90
68385;DHT22;55336;43.062;25.626;2023-04-25T12:18:44;20.10;97.50
68385;DHT22;55336;43.062;25.626;2023-04-25T12:21:09;20.30;99.90
68385;DHT22;55336;43.062;25.626;2023-04-25T12:23:38;20.80;99.90
68385;DHT22;55336;43.062;25.626;2023-04-25T12:26:03;20.90;99.90
68385;DHT22;55336;43.062;25.626;2023-04-25T12:28:31;20.50;98.20
68385;DHT22;55336;43.062;25.626;2023-04-25T12:31:05;20.10;99.90
68385;DHT22;55336;43.062;25.626;2023-04-25T12:33:37;19.80;99.90
68385;DHT22;55336;43.062;25.626;2023-04-25T12:36:05;19.60;99.90
68385;DHT22;55336;43.062;25.626;2023-04-25T12:38:38;19.40;99.90
68385;DHT22;55336;43.062;25.626;2023-04-25T12:41:04;19.20;99.90
68385;DHT22;55336;43.062;25.626;2023-04-25T12:43:30;19.00;99.90
68385;DHT22;55336;43.062;25.626;2023-04-25T12:45:55;18.80;99.90
68385;DHT22;55336;43.062;25.626;2023-04-25T12:48:21;18.30;99.90
68385;DHT22;55336;43.062;25.626;2023-04-25T12:50:48;17.90;99.90
68385;DHT22;55336;43.062;25.626;2023-04-25T12:53:20;17.90;99.90
68385;DHT22;55336;43.062;25.626;2023-04-25T12:55:46;17.60;99.90
68385;DHT22;55336;43.062;25.626;2023-04-25T12:58:12;17.50;99.90
68385;DHT22;55336;43.062;25.626;2023-04-25T13:00:38;17.10;99.90
68385;DHT22;55336;43.062;25.626;2023-04-25T13:03:04;16.80;99.90
68385;DHT22;55336;43.062;25.626;2023-04-25T13:05:30;16.10;99.90
68385;DHT22;55336;43.062;25.626;2023-04-25T13:07:55;15.80;99.90
68385;DHT22;55336;43.062;25.626;2023-04-25T13:10:21;15.80;99.90
68385;DHT22;55336;43.062;25.626;2023-04-25T13:12:47;15.60;99.90
68385;DHT22;55336;43.062;25.626;2023-04-25T13:15:13;15.50;99.90
68385;DHT22;55336;43.062;25.626;2023-04-25T13:17:41;15.40;99.90
68385;DHT22;55336;43.062;25.626;2023-04-25T13:20:07;15.10;99.90
68385;DHT22;55336;43.062;25.626;2023-04-25T13:22:35;14.90;99.90
68385;DHT22;55336;43.062;25.626;2023-04-25T13:25:02;14.90;99.90
68385;DHT22;55336;43.062;25.626;2023-04-25T13:27:28;14.90;99.90
68385;DHT22;55336;43.062;25.626;2023-04-25T13:29:54;14.90;99.90
68385;DHT22;55336;43.062;25.626;2023-04-25T13:32:20;14.90;99.90
68385;DHT22;55336;43.062;25.626;2023-04-25T13:34:45;14.90;99.90
68385;DHT22;55336;43.062;25.626;2023-04-25T13:37:11;14.90;99.90
68385;DHT22;55336;43.062;25.626;2023-04-25T13:39:37;15.00;99.90
68385;DHT22;55336;43.062;25.626;2023-04-25T13:42:03;15.00;99.90
68385;DHT22;55336;43.062;25.626;2023-04-25T13:44:30;15.10;99.90
68385;DHT22;55336;43.062;25.626;2023-04-25T13:46:55;15.20;99.90
68385;DHT22;55336;43.062;25.626;2023-04-25T13:49:21;15.30;99.90
68385;DHT22;55336;43.062;25.626;2023-04-25T13:51:48;15.50;99.90
68385;DHT22;55336;43.062;25.626;2023-04-25T13:54:17;15.50;99.90
68385;DHT22;55336;43.062;25.626;2023-04-25T13:56:43;15.70;99.90
68385;DHT22;55336;43.062;25.626;2023-04-25T13:59:09;16.00;99.90
68385;DHT22;55336;43.062;25.626;2023-04-25T14:01:35;16.50;99.90
68385;DHT22;55336;43.062;25.626;2023-04-25T14:04:01;17.40;99.90
68385;DHT22;55336;43.062;25.626;2023-04-25T14:06:27;17.70;99.90
68385;DHT22;55336;43.062;25.626;2023-04-25T14:08:53;17.70;99.90
68385;DHT22;55336;43.062;25.626;2023-04-25T14:11:19;17.40;99.90
68385;DHT22;55336;43.062;25.626;2023-04-25T14:13:45;17.30;99.90
68385;DHT22;55336;43.062;25.626;2023-04-25T14:16:11;17.30;99.90
68385;DHT22;55336;43.062;25.626;2023-04-25T14:18:37;17.00;99.90
68385;DHT22;55336;43.062;25.626;2023-04-25T14:21:02;17.00;99.90
68385;DHT22;55336;43.062;25.626;2023-04-25T14:23:28;16.90;99.90
68385;DHT22;55336;43.062;25.626;2023-04-25T14:25:54;16.70;99.90
68385;DHT22;55336;43.062;25.626;2023-04-25T14:28:20;16.70;99.90
68385;DHT22;55336;43.062;25.626;2023-04-25T14:30:46;16.50;99.90
68385;DHT22;55336;43.062;25.626;2023-04-25T14:33:11;16.50;99.90
68385;DHT22;55336;43.062;25.626;2023-04-25T14:35:39;16.50;99.90
68385;DHT22;55336;43.062;25.626;2023-04-25T14:38:05;16.60;99.90
68385;DHT22;55336;43.062;25.626;2023-04-25T14:40:30;16.10;99.90
68385;DHT22;55336;43.062;25.626;2023-04-25T14:42:56;15.40;99.90
68385;DHT22;55336;43.062;25.626;2023-04-25T14:45:22;15.20;99.90
68385;DHT22;55336;43.062;25.626;2023-04-25T14:47:48;14.80;99.90
68385;DHT22;55336;43.062;25.626;2023-04-25T14:50:14;14.50;99.90
68385;DHT22;55336;43.062;25.626;2023-04-25T14:52:40;14.00;99.90
68385;DHT22;55336;43.062;25.626;2023-04-25T14:55:06;13.60;99.90
68385;DHT22;55336;43.062;25.626;2023-04-25T14:57:32;13.40;99.90
68385;DHT22;55336;43.062;25.626;2023-04-25T14:59:58;13.30;99.90
68385;DHT22;55336;43.062;25.626;2023-04-25T15:02:24;13.00;99.90
68385;DHT22;55336;43.062;25.626;2023-04-25T15:04:51;13.00;99.90
68385;DHT22;55336;43.062;25.626;2023-04-25T15:07:20;12.90;99.90
68385;DHT22;55336;43.062;25.626;2023-04-25T15:09:47;12.90;99.90
68385;DHT22;55336;43.062;25.626;2023-04-25T15:12:13;12.80;99.90
68385;DHT22;55336;43.062;25.626;2023-04-25T15:14:39;12.70;99.90
68385;DHT22;55336;43.062;25.626;2023-04-25T15:17:05;12.70;99.90